Nashville, Tennessee
Traffic Map
Current Weather Conditions
Nashville, Tennessee
Overcast
Overcast

Feels Like: 0°
Wind Chill: Ceiling: 9000
Heat Index: Visibility: 9mi
Dew Point: -3° Wind: 7mph
Humidity: 67% Direction: 70° (ENE)
Pressure: 30.24in Gusts: 0mph
Raw Report DataKBNA 200453Z 07006KT 9SM OVC090 03/M03 A3024 RMK AO2 SNB44E53 SLP244 P0000 T00281028
Traffic Incident Summary
Active as of:
Severity:
Category:
InformationThere was an issue retrieving the traffic information for this location. Please try a different location or try again shortly.
Advertisements
Track Severe Weather on mobile